Terminal Aerodrome Forecast
Issued by NWS

Home | Current Version | Previous Version | Text Only | Print | Product List | Glossary On
Versions: 1 2 3 4 5 6 7 8 9 10 11 12 13 14 15 16 17 18
000
FTUS42 KTBW 250147 AAA
TAFPGD
TAF AMD
KPGD 250147Z 2502/2524 VRB03KT P6SM VCTS SCT030CB BKN050 OVC100
      TEMPO 2502/2503 5SM TSRA BKN030CB
     FM250400 VRB03KT P6SM SCT030 BKN070
     FM251700 28007KT P6SM SCT035 SCT250=

USA.gov is the U.S. government's official web portal to all federal, state and local government web resources and services.